Time;durP1;ratioP1;P1;durP2;ratioP2;P2;SDS_P1;SDS_P2;PMS_P1;PMS_P2;Temp;Humidity;BMP_temperature;BMP_pressure;BME280_temperature;BME280_humidity;BME280_pressure;Samples;Min_cycle;Max_cycle;Signal;HPM_P1;HPM_P2
2023/12/07 00:01:01;;;;;;;0.60;0.60;;;;;;;-1.60;100.00;101840.31;5114199;28;20026;-46
2023/12/07 00:03:26;;;;;;;0.60;0.60;;;;;;;-1.63;100.00;101829.94;5113680;28;20028;-49
2023/12/07 00:05:52;;;;;;;0.60;0.60;;;;;;;-1.62;100.00;101836.78;5113898;28;20019;-49
2023/12/07 00:08:17;;;;;;;0.50;0.50;;;;;;;-1.51;100.00;101836.13;5113841;28;20038;-48
2023/12/07 00:10:42;;;;;;;0.60;0.60;;;;;;;-1.47;100.00;101825.56;5113469;28;20459;-48
2023/12/07 00:13:08;;;;;;;0.50;0.50;;;;;;;-1.40;100.00;101827.03;5114133;28;20115;-48
2023/12/07 00:15:33;;;;;;;0.50;0.50;;;;;;;-1.41;100.00;101827.78;5113760;28;20019;-48
2023/12/07 00:18:00;;;;;;;0.50;0.50;;;;;;;-1.41;100.00;101828.66;5113135;28;20023;-46
2023/12/07 00:20:25;;;;;;;0.50;0.50;;;;;;;-1.66;100.00;101826.34;5113741;28;20019;-48
2023/12/07 00:22:50;;;;;;;0.50;0.50;;;;;;;-1.66;100.00;101823.81;5114259;28;20093;-49
2023/12/07 00:25:16;;;;;;;0.60;0.60;;;;;;;-1.69;100.00;101822.63;5112844;28;20099;-49
2023/12/07 00:27:41;;;;;;;0.60;0.60;;;;;;;-1.80;100.00;101824.16;5113779;28;20028;-47
2023/12/07 00:30:07;;;;;;;0.57;0.57;;;;;;;-1.78;100.00;101824.28;5113804;28;20157;-49
2023/12/07 00:32:32;;;;;;;0.50;0.50;;;;;;;-1.78;100.00;101830.25;5112655;28;20024;-48
2023/12/07 00:34:58;;;;;;;0.50;0.50;;;;;;;-1.82;100.00;101828.19;5113821;28;20023;-50
2023/12/07 00:37:23;;;;;;;0.60;0.60;;;;;;;-1.82;100.00;101828.19;5112465;28;20024;-48
2023/12/07 00:39:48;;;;;;;0.60;0.60;;;;;;;-1.78;100.00;101836.94;5112978;28;20031;-47
2023/12/07 00:42:13;;;;;;;0.60;0.60;;;;;;;-1.87;100.00;101839.50;5113385;28;20020;-47
2023/12/07 00:44:40;;;;;;;0.50;0.50;;;;;;;-1.98;100.00;101835.94;5113698;28;20104;-51
2023/12/07 00:47:06;;;;;;;0.60;0.60;;;;;;;-1.92;100.00;101840.69;5112392;28;20483;-50
2023/12/07 00:49:31;;;;;;;0.60;0.60;;;;;;;-2.04;100.00;101836.25;5113388;28;20030;-50
2023/12/07 00:51:56;;;;;;;0.60;0.60;;;;;;;-2.18;100.00;101837.44;5113575;28;20433;-50
2023/12/07 00:54:21;;;;;;;0.60;0.60;;;;;;;-2.13;100.00;101832.84;5112286;28;20433;-47
2023/12/07 00:56:47;;;;;;;0.60;0.60;;;;;;;-2.21;100.00;101832.09;5113402;28;20070;-48
2023/12/07 00:59:12;;;;;;;0.50;0.50;;;;;;;-2.22;100.00;101831.91;5112871;28;20038;-48
2023/12/07 01:01:38;;;;;;;0.50;0.50;;;;;;;-2.23;100.00;101827.63;5112525;28;20042;-47
2023/12/07 01:04:05;;;;;;;0.50;0.50;;;;;;;-2.27;100.00;101831.50;5113676;28;20031;-47
2023/12/07 01:06:31;;;;;;;0.50;0.50;;;;;;;-2.22;100.00;101834.44;5112839;28;20023;-48
2023/12/07 01:08:56;;;;;;;0.50;0.50;;;;;;;-2.28;100.00;101836.41;5112654;28;20073;-47
2023/12/07 01:11:21;;;;;;;0.50;0.50;;;;;;;-2.24;100.00;101831.78;5112893;28;20059;-48
2023/12/07 01:13:47;;;;;;;0.50;0.50;;;;;;;-2.25;100.00;101844.25;5106885;28;20145;-49
2023/12/07 01:16:12;;;;;;;0.60;0.60;;;;;;;-2.25;100.00;101846.78;5091838;28;20361;-49
2023/12/07 01:18:37;;;;;;;0.60;0.60;;;;;;;-2.23;100.00;101847.84;5092940;28;20103;-48
2023/12/07 01:21:03;;;;;;;0.55;0.55;;;;;;;-2.34;100.00;101859.41;5092201;28;20031;-48
2023/12/07 01:23:28;;;;;;;0.60;0.60;;;;;;;-2.30;100.00;101843.81;5092516;28;20026;-49
2023/12/07 01:25:53;;;;;;;0.60;0.60;;;;;;;-2.36;100.00;101846.63;5092785;28;20375;-48
2023/12/07 01:28:19;;;;;;;0.60;0.60;;;;;;;-2.33;100.00;101851.97;5091699;28;20036;-46
2023/12/07 01:30:44;;;;;;;0.60;0.60;;;;;;;-2.28;100.00;101846.50;5092622;28;20080;-47
2023/12/07 01:33:09;;;;;;;0.50;0.50;;;;;;;-2.26;100.00;101850.97;5092517;28;20387;-46
2023/12/07 01:35:34;;;;;;;0.60;0.60;;;;;;;-2.22;100.00;101845.47;5092018;28;20043;-48
2023/12/07 01:38:00;;;;;;;0.60;0.60;;;;;;;-2.11;100.00;101846.47;5092735;28;20032;-47
2023/12/07 01:40:25;;;;;;;0.50;0.50;;;;;;;-2.04;100.00;101846.34;5092371;28;20372;-48
2023/12/07 01:42:54;;;;;;;0.60;0.60;;;;;;;-2.01;100.00;101850.81;5091709;28;20375;-48
2023/12/07 01:45:19;;;;;;;0.55;0.55;;;;;;;-2.15;100.00;101842.75;5092195;28;20020;-49
2023/12/07 01:47:46;;;;;;;0.50;0.50;;;;;;;-2.18;100.00;101849.19;5092324;28;20098;-48
2023/12/07 01:50:14;;;;;;;0.60;0.60;;;;;;;-2.30;100.00;101847.97;5094400;28;20077;-46
2023/12/07 01:52:44;;;;;;;0.50;0.50;;;;;;;-2.25;100.00;101864.47;5096541;28;20024;-50
2023/12/07 01:55:10;;;;;;;0.55;0.55;;;;;;;-2.26;100.00;101847.53;5096295;28;20028;-44
2023/12/07 01:57:36;;;;;;;0.52;0.52;;;;;;;-2.26;100.00;101845.91;5095441;28;20038;-47
2023/12/07 02:00:03;;;;;;;0.60;0.60;;;;;;;-2.37;100.00;101854.94;5096358;28;20027;-50
2023/12/07 02:02:30;;;;;;;0.60;0.60;;;;;;;-2.33;100.00;101851.97;5095832;28;20020;-50
2023/12/07 02:04:55;;;;;;;0.50;0.50;;;;;;;-2.26;100.00;101848.44;5095835;28;20081;-49
2023/12/07 02:07:23;;;;;;;0.50;0.50;;;;;;;-2.42;100.00;101853.59;5095982;28;20020;-49
2023/12/07 02:09:49;;;;;;;0.60;0.60;;;;;;;-2.45;100.00;101853.31;5095896;28;20042;-49
2023/12/07 02:12:14;;;;;;;0.50;0.50;;;;;;;-2.38;100.00;101853.16;5095191;28;20100;-45
2023/12/07 02:14:39;;;;;;;0.60;0.60;;;;;;;-2.45;100.00;101854.94;5095832;28;20106;-48
2023/12/07 02:17:23;;;;;;;0.57;0.57;;;;;;;-2.47;100.00;101852.25;5095703;28;20036;-49
2023/12/07 02:20:13;;;;;;;0.50;0.50;;;;;;;-2.56;100.00;101851.38;5095819;28;20459;-49
2023/12/07 02:22:54;;;;;;;0.50;0.50;;;;;;;-2.58;100.00;101852.84;5095939;28;20028;-49
2023/12/07 02:25:26;;;;;;;0.60;0.60;;;;;;;-2.60;100.00;101859.38;5094686;28;20414;-47
2023/12/07 02:27:51;;;;;;;0.50;0.50;;;;;;;-2.60;100.00;101851.81;5096190;28;20035;-47
2023/12/07 02:30:16;;;;;;;0.55;0.55;;;;;;;-2.47;100.00;101866.53;5095522;28;20024;-47
2023/12/07 02:32:44;;;;;;;0.60;0.60;;;;;;;-2.34;100.00;101866.97;5095017;28;20024;-47
2023/12/07 02:35:12;;;;;;;0.60;0.60;;;;;;;-2.18;100.00;101862.69;5095360;28;20456;-46
2023/12/07 02:37:47;;;;;;;0.70;0.70;;;;;;;-1.96;100.00;101868.91;5095427;28;20039;-50
2023/12/07 02:40:17;;;;;;;0.70;0.70;;;;;;;-1.80;100.00;101866.25;5094911;28;20028;-49
2023/12/07 02:42:43;;;;;;;1.00;1.00;;;;;;;-1.70;100.00;101853.72;5095560;28;20024;-49
2023/12/07 02:45:10;;;;;;;1.30;1.20;;;;;;;-1.68;100.00;101853.13;5095351;28;20232;-48
2023/12/07 02:47:35;;;;;;;1.20;1.10;;;;;;;-1.66;100.00;101851.63;5094732;28;20035;-51
2023/12/07 02:50:02;;;;;;;0.90;0.90;;;;;;;-1.66;100.00;101841.50;5095290;28;20486;-50
2023/12/07 02:52:28;;;;;;;1.20;1.10;;;;;;;-1.68;100.00;101843.03;5094346;28;20419;-49
2023/12/07 02:54:54;;;;;;;0.90;0.90;;;;;;;-1.68;100.00;101848.09;5095489;28;20108;-49
2023/12/07 02:57:19;;;;;;;0.85;0.85;;;;;;;-1.71;100.00;101846.91;5095163;28;20103;-47
2023/12/07 02:59:44;;;;;;;0.90;0.90;;;;;;;-1.73;100.00;101849.28;5094478;28;20036;-47
2023/12/07 03:02:10;;;;;;;0.80;0.80;;;;;;;-1.73;100.00;101851.81;5093957;28;20111;-47
2023/12/07 03:04:35;;;;;;;0.80;0.80;;;;;;;-1.72;100.00;101851.03;5095025;28;20043;-49
2023/12/07 03:07:00;;;;;;;1.10;1.10;;;;;;;-1.75;100.00;101849.88;5094466;28;20028;-49
2023/12/07 03:09:26;;;;;;;0.90;0.90;;;;;;;-1.73;100.00;101846.75;5094835;28;20016;-48
2023/12/07 03:11:51;;;;;;;1.10;1.00;;;;;;;-1.73;100.00;101849.28;5094894;28;20494;-48
2023/12/07 03:14:16;;;;;;;0.90;0.90;;;;;;;-1.72;100.00;101860.28;5093974;28;20028;-49
2023/12/07 03:16:42;;;;;;;1.00;1.00;;;;;;;-1.73;100.00;101858.47;5094912;28;20020;-49
2023/12/07 03:19:07;;;;;;;1.20;1.10;;;;;;;-1.73;100.00;101854.34;5094695;28;20035;-48
2023/12/07 03:21:32;;;;;;;1.00;1.00;;;;;;;-1.74;100.00;101859.22;5093548;28;20036;-46
2023/12/07 03:23:58;;;;;;;0.80;0.80;;;;;;;-1.74;100.00;101857.59;5094992;28;20099;-50
2023/12/07 03:26:23;;;;;;;0.90;0.90;;;;;;;-1.75;100.00;101865.91;5094335;28;20365;-48
2023/12/07 03:28:48;;;;;;;1.27;1.17;;;;;;;-1.78;100.00;101863.13;5093996;28;20024;-48
2023/12/07 03:31:13;;;;;;;0.98;0.90;;;;;;;-1.79;100.00;101862.97;5094273;28;20024;-49
2023/12/07 03:33:42;;;;;;;0.90;0.90;;;;;;;-1.81;100.00;101862.81;5094306;28;20049;-50
2023/12/07 03:36:10;;;;;;;1.00;1.00;;;;;;;-1.78;100.00;101864.72;5094286;28;20028;-48
2023/12/07 03:38:35;;;;;;;0.60;0.60;;;;;;;-1.74;100.00;101862.66;5094670;28;20107;-49
2023/12/07 03:41:01;;;;;;;0.68;0.68;;;;;;;-1.73;100.00;101863.53;5094201;28;20150;-50
2023/12/07 03:43:26;;;;;;;0.80;0.80;;;;;;;-1.73;100.00;101861.91;5093607;28;20032;-49
2023/12/07 03:45:52;;;;;;;1.40;1.30;;;;;;;-1.81;100.00;101865.31;5094189;28;20177;-49
2023/12/07 03:48:17;;;;;;;0.90;0.90;;;;;;;-1.79;100.00;101865.50;5093645;28;20031;-50
2023/12/07 03:50:42;;;;;;;0.93;0.93;;;;;;;-1.82;100.00;101873.69;5093815;28;20028;-48
2023/12/07 03:53:07;;;;;;;1.02;1.00;;;;;;;-1.83;100.00;101869.38;5094191;28;20024;-48
2023/12/07 03:55:33;;;;;;;1.17;1.08;;;;;;;-1.82;100.00;101883.78;5093676;28;20028;-49
2023/12/07 03:57:58;;;;;;;1.20;1.10;;;;;;;-1.85;100.00;101878.41;5093618;28;20054;-50
2023/12/07 04:00:23;;;;;;;1.00;1.00;;;;;;;-1.86;100.00;101889.25;5093714;28;20032;-49
2023/12/07 04:02:49;;;;;;;1.13;1.02;;;;;;;-1.85;100.00;101896.09;5093101;28;20467;-49
2023/12/07 04:05:14;;;;;;;0.80;0.80;;;;;;;-1.79;100.00;101894.19;5093626;28;20119;-49
2023/12/07 04:07:39;;;;;;;1.00;1.00;;;;;;;-1.79;100.00;101893.31;5093798;28;20023;-47
2023/12/07 04:10:06;;;;;;;0.98;0.95;;;;;;;-1.81;100.00;101885.53;5093155;28;20112;-50
2023/12/07 04:12:31;;;;;;;1.10;1.00;;;;;;;-1.80;100.00;101881.41;5093506;28;20107;-47
2023/12/07 04:14:57;;;;;;;1.00;1.00;;;;;;;-1.78;100.00;101885.84;5093631;28;20055;-49
2023/12/07 04:17:22;;;;;;;1.00;1.00;;;;;;;-1.75;100.00;101887.78;5092613;28;20051;-49
2023/12/07 04:19:47;;;;;;;0.90;0.90;;;;;;;-1.76;100.00;101886.88;5093551;28;20395;-49
2023/12/07 04:22:12;;;;;;;0.90;0.90;;;;;;;-1.73;100.00;101886.28;5093332;28;20074;-50
2023/12/07 04:24:38;;;;;;;0.85;0.85;;;;;;;-1.74;100.00;101887.94;5092632;28;20058;-49
2023/12/07 04:27:03;;;;;;;0.80;0.80;;;;;;;-1.72;100.00;101886.41;5093703;28;20489;-49
2023/12/07 04:29:28;;;;;;;1.00;1.00;;;;;;;-1.70;100.00;101895.06;5093029;28;20380;-48
2023/12/07 04:31:54;;;;;;;0.88;0.88;;;;;;;-1.67;100.00;101894.47;5092673;28;20024;-49
2023/12/07 04:34:19;;;;;;;0.82;0.82;;;;;;;-1.64;100.00;101898.91;5092980;28;20028;-49
2023/12/07 04:36:45;;;;;;;0.90;0.90;;;;;;;-1.67;100.00;101900.38;5092954;28;20032;-48
2023/12/07 04:39:10;;;;;;;1.00;1.00;;;;;;;-1.66;100.00;101901.31;5092559;28;20225;-46
2023/12/07 04:41:35;;;;;;;0.90;0.90;;;;;;;-1.68;100.00;101897.72;5093336;28;20023;-50
2023/12/07 04:44:01;;;;;;;0.90;0.90;;;;;;;-1.67;100.00;101899.50;5093127;28;20024;-45
2023/12/07 04:46:28;;;;;;;0.90;0.90;;;;;;;-1.69;100.00;101901.91;5092170;28;20392;-49
2023/12/07 04:48:53;;;;;;;0.80;0.80;;;;;;;-1.73;100.00;101894.78;5093036;28;20072;-49
2023/12/07 04:51:19;;;;;;;0.90;0.90;;;;;;;-1.72;100.00;101895.66;5092869;28;20024;-50
2023/12/07 04:53:44;;;;;;;0.88;0.88;;;;;;;-1.71;100.00;101899.97;5092774;28;20024;-49
2023/12/07 04:56:09;;;;;;;0.90;0.90;;;;;;;-1.71;100.00;101895.78;5092730;28;20073;-45
2023/12/07 04:58:35;;;;;;;0.90;0.90;;;;;;;-1.74;100.00;101887.03;5092758;28;20028;-49
2023/12/07 05:01:00;;;;;;;1.10;1.10;;;;;;;-1.76;100.00;101891.06;5092339;28;20038;-50
2023/12/07 05:03:26;;;;;;;1.00;1.00;;;;;;;-1.77;100.00;101895.22;5092780;28;20116;-47
2023/12/07 05:05:51;;;;;;;1.00;1.00;;;;;;;-1.79;100.00;101884.06;5092946;28;20028;-46
2023/12/07 05:08:17;;;;;;;0.95;0.95;;;;;;;-1.79;100.00;101884.06;5092167;28;20063;-47
2023/12/07 05:10:43;;;;;;;1.08;1.08;;;;;;;-1.79;100.00;101878.13;5093138;28;20024;-49
2023/12/07 05:13:08;;;;;;;1.00;1.00;;;;;;;-1.78;100.00;101874.84;5092184;28;20024;-48
2023/12/07 05:15:34;;;;;;;1.00;1.00;;;;;;;-1.81;100.00;101875.44;5092460;28;20063;-49
2023/12/07 05:17:59;;;;;;;1.02;1.00;;;;;;;-1.84;100.00;101873.50;5092797;28;20032;-49
2023/12/07 05:20:26;;;;;;;1.00;1.00;;;;;;;-1.85;100.00;101873.38;5091877;28;20073;-47
2023/12/07 05:22:52;;;;;;;0.85;0.85;;;;;;;-1.83;100.00;101871.88;5093201;28;20025;-48
2023/12/07 05:25:18;;;;;;;1.00;1.00;;;;;;;-1.83;100.00;101874.41;5095983;28;20375;-46
2023/12/07 05:27:44;;;;;;;1.00;1.00;;;;;;;-1.83;100.00;101876.94;5096321;28;20023;-48
2023/12/07 05:30:10;;;;;;;1.27;1.17;;;;;;;-1.85;100.00;101876.81;5096703;28;20035;-47
2023/12/07 05:32:35;;;;;;;1.02;1.00;;;;;;;-1.84;100.00;101870.09;5096732;28;20024;-49
2023/12/07 05:35:01;;;;;;;0.90;0.90;;;;;;;-1.81;100.00;101875.44;5095970;28;20032;-48
2023/12/07 05:37:26;;;;;;;0.80;0.80;;;;;;;-1.77;100.00;101872.47;5096610;28;20095;-48
2023/12/07 05:39:52;;;;;;;1.15;1.05;;;;;;;-1.81;100.00;101862.81;5096420;28;20387;-50
2023/12/07 05:42:17;;;;;;;0.90;0.90;;;;;;;-1.79;100.00;101868.03;5095819;28;20153;-49
2023/12/07 05:44:42;;;;;;;0.80;0.80;;;;;;;-1.75;100.00;101872.63;5096537;28;20027;-49
2023/12/07 05:47:07;;;;;;;0.82;0.82;;;;;;;-1.74;100.00;101870.25;5096007;28;20044;-48
2023/12/07 05:49:33;;;;;;;1.02;1.02;;;;;;;-1.74;100.00;101862.66;5095551;28;20019;-49
2023/12/07 05:51:58;;;;;;;1.30;1.20;;;;;;;-1.73;100.00;101858.47;5096326;28;20035;-48
2023/12/07 05:54:24;;;;;;;1.30;1.20;;;;;;;-1.73;100.00;101858.47;5095758;28;20028;-48
2023/12/07 05:56:49;;;;;;;1.00;1.00;;;;;;;-1.73;100.00;101861.91;5095786;28;20024;-48
2023/12/07 05:59:14;;;;;;;0.90;0.90;;;;;;;-1.73;100.00;101864.44;5096049;28;20016;-48
2023/12/07 06:01:40;;;;;;;0.88;0.88;;;;;;;-1.71;100.00;101867.09;5095972;28;20058;-50
2023/12/07 06:04:09;;;;;;;0.90;0.90;;;;;;;-1.72;100.00;101861.16;5095874;28;20456;-46
2023/12/07 06:06:34;;;;;;;1.00;1.00;;;;;;;-1.71;100.00;101857.00;5096392;28;20100;-49
2023/12/07 06:08:59;;;;;;;0.80;0.80;;;;;;;-1.70;100.00;101852.09;5095984;28;20052;-49
2023/12/07 06:11:25;;;;;;;0.90;0.90;;;;;;;-1.68;100.00;101857.28;5095200;28;20034;-50
2023/12/07 06:13:50;;;;;;;1.23;1.13;;;;;;;-1.67;100.00;101859.94;5095885;28;20471;-48
2023/12/07 06:16:17;;;;;;;0.80;0.80;;;;;;;-1.66;100.00;101859.22;5095388;28;20029;-48
2023/12/07 06:18:42;;;;;;;0.80;0.80;;;;;;;-1.60;100.00;101860.53;5095584;28;20028;-50
2023/12/07 06:21:07;;;;;;;0.80;0.80;;;;;;;-1.58;100.00;101869.16;5096063;28;20104;-50
2023/12/07 06:23:34;;;;;;;0.90;0.90;;;;;;;-1.57;100.00;101864.25;5094629;28;20031;-48
2023/12/07 06:25:59;;;;;;;0.73;0.73;;;;;;;-1.54;100.00;101861.13;5095760;28;20383;-48
2023/12/07 06:28:24;;;;;;;0.80;0.80;;;;;;;-1.53;100.00;101862.91;5095530;28;20108;-49
2023/12/07 06:30:50;;;;;;;0.70;0.70;;;;;;;-1.51;100.00;101874.03;5094775;28;20024;-49
2023/12/07 06:33:15;;;;;;;0.90;0.90;;;;;;;-1.51;100.00;101868.97;5095524;28;20556;-49
2023/12/07 06:35:40;;;;;;;0.70;0.70;;;;;;;-1.50;100.00;101866.63;5094147;28;20028;-48
2023/12/07 06:38:06;;;;;;;0.85;0.85;;;;;;;-1.47;100.00;101866.03;5094915;28;20021;-44
2023/12/07 06:40:31;;;;;;;1.10;1.10;;;;;;;-1.50;100.00;101863.19;5095310;28;20031;-49
2023/12/07 06:42:57;;;;;;;0.95;0.95;;;;;;;-1.50;100.00;101853.06;5095606;28;20115;-49
2023/12/07 06:45:22;;;;;;;1.00;1.00;;;;;;;-1.51;100.00;101846.22;5094508;28;20020;-50
2023/12/07 06:47:47;;;;;;;0.80;0.80;;;;;;;-1.50;100.00;101848.03;5095142;28;20082;-48
2023/12/07 06:50:13;;;;;;;0.70;0.70;;;;;;;-1.46;100.00;101850.09;5094962;28;20031;-46
2023/12/07 06:52:39;;;;;;;0.90;0.90;;;;;;;-1.47;100.00;101845.81;5094860;28;20111;-49
2023/12/07 06:55:05;;;;;;;0.70;0.70;;;;;;;-1.45;100.00;101844.28;5095326;28;20036;-49
2023/12/07 06:57:30;;;;;;;1.00;1.00;;;;;;;-1.44;100.00;101843.53;5094758;28;20081;-50
2023/12/07 06:59:56;;;;;;;0.88;0.88;;;;;;;-1.44;100.00;101835.97;5094622;28;20028;-49
2023/12/07 07:02:22;;;;;;;1.10;1.00;;;;;;;-1.46;100.00;101834.91;5094738;28;20460;-45
2023/12/07 07:04:48;;;;;;;1.17;1.10;;;;;;;-1.47;100.00;101835.69;5094950;28;20478;-49
2023/12/07 07:07:14;;;;;;;0.90;0.90;;;;;;;-1.47;100.00;101830.63;5094313;28;20095;-49
2023/12/07 07:09:40;;;;;;;1.00;1.00;;;;;;;-1.48;100.00;101833.91;5095391;28;20047;-48
2023/12/07 07:12:05;;;;;;;0.70;0.70;;;;;;;-1.44;100.00;101840.13;5094668;28;20042;-49
2023/12/07 07:14:31;;;;;;;1.00;1.00;;;;;;;-1.47;100.00;101848.31;5093956;28;20599;-46
2023/12/07 07:16:56;;;;;;;0.80;0.80;;;;;;;-1.47;100.00;101848.31;5094781;28;20028;-45
2023/12/07 07:19:21;;;;;;;0.90;0.90;;;;;;;-1.45;100.00;101845.94;5094416;28;20445;-47
2023/12/07 07:21:46;;;;;;;0.75;0.75;;;;;;;-1.45;100.00;101844.28;5094340;28;20036;-50
2023/12/07 07:24:12;;;;;;;0.90;0.90;;;;;;;-1.45;100.00;101841.75;5094530;28;20526;-49
2023/12/07 07:26:38;;;;;;;0.90;0.90;;;;;;;-1.45;100.00;101845.94;5094406;28;20031;-46
2023/12/07 07:29:03;;;;;;;0.90;0.90;;;;;;;-1.44;100.00;101857.84;5093945;28;20044;-50
2023/12/07 07:31:29;;;;;;;0.80;0.80;;;;;;;-1.43;100.00;101867.19;5094120;28;20051;-49
2023/12/07 07:33:55;;;;;;;0.80;0.80;;;;;;;-1.43;100.00;101870.63;5093871;28;20021;-50
2023/12/07 07:36:20;;;;;;;0.73;0.73;;;;;;;-1.42;100.00;101871.50;5094180;28;20074;-46
2023/12/07 07:38:46;;;;;;;0.90;0.90;;;;;;;-1.43;100.00;101860.50;5094582;28;20077;-45
2023/12/07 07:41:11;;;;;;;0.80;0.80;;;;;;;-1.40;100.00;101859.91;5093398;28;20024;-44
2023/12/07 07:43:37;;;;;;;0.80;0.80;;;;;;;-1.38;100.00;101861.81;5094085;28;20020;-44
2023/12/07 07:46:06;;;;;;;0.80;0.80;;;;;;;-1.37;100.00;101860.19;5094221;28;20040;-50
2023/12/07 07:48:31;;;;;;;0.80;0.80;;;;;;;-1.35;100.00;101864.63;5092643;28;20459;-49
2023/12/07 07:50:57;;;;;;;0.73;0.73;;;;;;;-1.34;100.00;101865.53;5094242;28;20027;-49
2023/12/07 07:53:23;;;;;;;0.70;0.70;;;;;;;-1.31;100.00;101859.88;5093799;28;20024;-47
2023/12/07 07:55:48;;;;;;;0.82;0.82;;;;;;;-1.28;100.00;101865.22;5093642;28;20054;-46
2023/12/07 07:58:14;;;;;;;0.80;0.80;;;;;;;-1.25;100.00;101865.47;5093834;28;20353;-44
2023/12/07 08:00:39;;;;;;;0.60;0.60;;;;;;;-1.20;100.00;101859.22;5093992;28;20110;-50
2023/12/07 08:03:05;;;;;;;0.70;0.70;;;;;;;-1.17;100.00;101862.06;5093444;28;20418;-49
2023/12/07 08:05:30;;;;;;;0.50;0.50;;;;;;;-1.12;100.00;101863.38;5093689;28;20020;-51
2023/12/07 08:07:55;;;;;;;0.60;0.60;;;;;;;-1.08;100.00;101852.78;5093607;28;20050;-44
2023/12/07 08:10:21;;;;;;;0.60;0.60;;;;;;;-0.98;100.00;101851.09;5092936;28;20028;-50
2023/12/07 08:12:46;;;;;;;0.60;0.60;;;;;;;-1.02;100.00;101850.81;5093635;28;20590;-49
2023/12/07 08:15:12;;;;;;;0.70;0.70;;;;;;;-0.98;100.00;101851.09;5093022;28;20032;-49
2023/12/07 08:17:40;;;;;;;0.60;0.60;;;;;;;-0.98;100.00;101853.63;5093196;28;20016;-47
2023/12/07 08:20:07;;;;;;;0.60;0.60;;;;;;;-0.96;100.00;101853.03;5093685;28;20035;-47
2023/12/07 08:22:32;;;;;;;0.60;0.60;;;;;;;-0.95;100.00;101851.41;5092845;28;20020;-49
2023/12/07 08:24:58;;;;;;;0.60;0.60;;;;;;;-0.92;100.00;101856.72;5093169;28;20030;-48
2023/12/07 08:27:23;;;;;;;0.65;0.65;;;;;;;-0.88;100.00;101854.63;5093248;28;20029;-48
2023/12/07 08:29:49;;;;;;;0.70;0.70;;;;;;;-0.85;100.00;101851.50;5093172;28;20482;-49
2023/12/07 08:32:15;;;;;;;0.60;0.60;;;;;;;-0.83;100.00;101855.03;5092762;28;20021;-50
2023/12/07 08:34:41;;;;;;;0.60;0.60;;;;;;;-0.83;100.00;101852.50;5093472;28;20023;-47
2023/12/07 08:37:06;;;;;;;0.70;0.70;;;;;;;-0.77;100.00;101857.25;5092687;28;20081;-49
2023/12/07 08:39:31;;;;;;;0.68;0.68;;;;;;;-0.78;100.00;101861.41;5093056;28;20476;-49
2023/12/07 08:41:56;;;;;;;0.65;0.65;;;;;;;-0.75;100.00;101854.13;5093162;28;20039;-49
2023/12/07 08:44:22;;;;;;;0.60;0.60;;;;;;;-0.73;100.00;101847.53;5092137;28;20553;-50
2023/12/07 08:46:47;;;;;;;0.60;0.60;;;;;;;-0.69;100.00;101849.59;5092921;28;20082;-49
2023/12/07 08:49:13;;;;;;;0.70;0.70;;;;;;;-0.65;100.00;101857.47;5092870;28;20490;-49
2023/12/07 08:51:38;;;;;;;0.50;0.50;;;;;;;-0.65;100.00;101857.47;5092479;28;20031;-49
2023/12/07 08:54:05;;;;;;;0.50;0.50;;;;;;;-0.56;100.00;101863.38;5093088;28;20368;-48
2023/12/07 08:56:30;;;;;;;0.50;0.50;;;;;;;-0.62;100.00;101857.75;5092307;28;20413;-43
2023/12/07 08:58:55;;;;;;;0.60;0.60;;;;;;;-0.60;100.00;101863.84;5091610;28;20524;-47
2023/12/07 09:01:21;;;;;;;0.60;0.60;;;;;;;-0.58;100.00;101862.34;5092938;28;20032;-46
2023/12/07 09:03:46;;;;;;;0.50;0.50;;;;;;;-0.57;100.00;101859.06;5092753;28;20115;-45
2023/12/07 09:06:11;;;;;;;0.50;0.50;;;;;;;-0.58;100.00;101855.66;5092181;28;20035;-47
2023/12/07 09:08:36;;;;;;;0.50;0.50;;;;;;;-0.58;100.00;101857.25;5092793;28;20382;-48
2023/12/07 09:11:03;;;;;;;0.43;0.43;;;;;;;-0.57;100.00;101856.53;5092665;28;20020;-48
2023/12/07 09:13:29;;;;;;;0.50;0.50;;;;;;;-0.56;100.00;101843.13;5091984;28;20032;-46
2023/12/07 09:15:54;;;;;;;0.50;0.50;;;;;;;-0.51;100.00;101841.88;5093085;28;20046;-47
2023/12/07 09:18:19;;;;;;;0.40;0.40;;;;;;;-0.46;100.00;101842.31;5092166;28;20024;-44
2023/12/07 09:20:47;;;;;;;0.60;0.60;;;;;;;-0.44;100.00;101838.25;5092362;28;20507;-47
2023/12/07 09:23:12;;;;;;;;;;;;;;;-0.36;100.00;101843.28;5092743;28;20533;-49
2023/12/07 09:25:38;;;;;;;0.50;0.50;;;;;;;-0.43;100.00;101848.53;5092513;28;19912;-48
2023/12/07 09:28:04;;;;;;;0.43;0.43;;;;;;;-0.41;100.00;101838.56;5092110;28;20032;-44
2023/12/07 09:30:29;;;;;;;0.50;0.50;;;;;;;-0.38;100.00;101846.41;5092377;28;20146;-49
2023/12/07 09:32:54;;;;;;;0.47;0.47;;;;;;;-0.34;100.00;101841.78;5092384;28;20024;-45
2023/12/07 09:35:20;;;;;;;0.40;0.40;;;;;;;-0.35;100.00;101834.00;5091603;28;20031;-44
2023/12/07 09:37:46;;;;;;;0.60;0.60;;;;;;;-0.32;100.00;101836.84;5092689;28;20113;-47
2023/12/07 09:40:19;;;;;;;0.50;0.50;;;;;;;-0.28;100.00;101840.53;5092092;28;20028;-43
2023/12/07 09:42:46;;;;;;;0.55;0.55;;;;;;;-0.30;100.00;101835.31;5092678;28;20043;-49
2023/12/07 09:45:12;;;;;;;0.60;0.60;;;;;;;-0.27;100.00;101827.09;5092269;28;20380;-47
2023/12/07 09:47:39;;;;;;;0.50;0.50;;;;;;;-0.21;100.00;101822.59;5091582;28;20044;-49
2023/12/07 09:50:06;;;;;;;0.60;0.60;;;;;;;-0.18;100.00;101820.34;5092584;28;20024;-50
2023/12/07 09:52:32;;;;;;;0.50;0.50;;;;;;;-0.07;100.00;101824.69;5091786;28;20111;-44
2023/12/07 09:54:59;;;;;;;0.50;0.50;;;;;;;-0.08;100.00;101822.94;5091679;28;20135;-45
2023/12/07 09:57:24;;;;;;;0.50;0.50;;;;;;;-0.07;100.00;101821.28;5092236;28;20048;-50
2023/12/07 09:59:49;;;;;;;0.50;0.50;;;;;;;-0.07;100.00;101806.06;5091965;28;20028;-50
2023/12/07 10:02:15;;;;;;;0.50;0.50;;;;;;;-0.05;100.00;101809.63;5091537;28;20127;-46
2023/12/07 10:04:41;;;;;;;0.47;0.47;;;;;;;0.08;100.00;101801.44;5092264;28;20067;-47
2023/12/07 10:07:08;;;;;;;0.40;0.40;;;;;;;0.22;100.00;101795.94;5092047;28;20048;-48
2023/12/07 10:09:38;;;;;;;0.50;0.50;;;;;;;0.19;100.00;101788.06;5091493;28;20028;-46
2023/12/07 10:12:04;;;;;;;0.50;0.50;;;;;;;0.29;100.00;101783.03;5096262;28;20039;-48
2023/12/07 10:14:30;;;;;;;0.50;0.50;;;;;;;0.31;100.00;101778.06;5095563;28;20046;-50
2023/12/07 10:16:56;;;;;;;0.40;0.40;;;;;;;0.54;100.00;101771.56;5095515;28;20028;-48
2023/12/07 10:19:22;;;;;;;0.40;0.40;;;;;;;0.73;100.00;101767.28;5095636;28;20380;-49
2023/12/07 10:21:49;;;;;;;0.35;0.35;;;;;;;0.74;100.00;101763.09;5095560;28;20032;-45
2023/12/07 10:24:16;;;;;;;0.50;0.50;;;;;;;0.75;100.00;101764.84;5094833;28;20024;-50
2023/12/07 10:26:42;;;;;;;0.40;0.40;;;;;;;0.65;100.00;101758.13;5095983;28;20055;-44
2023/12/07 10:29:08;;;;;;;0.40;0.40;;;;;;;0.58;100.00;101759.28;5095786;28;20027;-49
2023/12/07 10:31:33;;;;;;;0.50;0.50;;;;;;;0.62;100.00;101747.72;5094994;28;20024;-49
2023/12/07 10:33:59;;;;;;;0.40;0.40;;;;;;;0.64;100.00;101741.13;5095687;28;20051;-46
2023/12/07 10:36:25;;;;;;;0.47;0.47;;;;;;;0.67;100.00;101737.97;5095073;28;20031;-49
2023/12/07 10:38:51;;;;;;;0.50;0.50;;;;;;;0.88;100.00;101733.78;5094942;28;20024;-49
2023/12/07 10:41:19;;;;;;;0.50;0.50;;;;;;;0.96;100.00;101732.78;5095349;28;20049;-47
2023/12/07 10:43:49;;;;;;;0.50;0.50;;;;;;;1.15;100.00;101732.66;5094700;28;20031;-48
2023/12/07 10:46:18;;;;;;;0.40;0.40;;;;;;;1.09;100.00;101732.13;5094801;28;20204;-48
2023/12/07 10:48:48;;;;;;;0.50;0.50;;;;;;;1.07;100.00;101733.66;5094997;28;20039;-47
2023/12/07 10:51:37;;;;;;;0.45;0.45;;;;;;;1.08;100.00;101725.28;5094351;28;20024;-49
2023/12/07 10:54:04;;;;;;;0.50;0.50;;;;;;;1.01;100.00;101718.81;5095144;28;20399;-47
2023/12/07 10:56:43;;;;;;;0.30;0.30;;;;;;;1.08;100.00;101713.47;5094734;28;20047;-48
2023/12/07 10:59:13;;;;;;;0.40;0.40;;;;;;;1.07;100.00;101708.25;5094677;28;20065;-46
2023/12/07 11:01:42;;;;;;;0.40;0.40;;;;;;;1.08;100.00;101715.13;5094927;28;20024;-46
2023/12/07 11:04:11;;;;;;;0.50;0.50;;;;;;;1.28;100.00;101710.03;5094966;28;20024;-48
2023/12/07 11:06:38;;;;;;;0.47;0.47;;;;;;;1.35;100.00;101702.91;5094625;28;20073;-46
2023/12/07 11:09:08;;;;;;;0.40;0.40;;;;;;;1.40;100.00;101699.06;5095057;28;20028;-44
2023/12/07 11:11:44;;;;;;;0.50;0.50;;;;;;;1.52;100.00;101705.13;5094460;28;20020;-48
2023/12/07 11:14:11;;;;;;;0.40;0.40;;;;;;;1.61;100.00;101699.88;5094425;28;20031;-46